Russellville, Vermont
Current Conditions -  °F | °C
As of 10:15 PM on Thursday 18 Dec 2014 (Local Time) from KRUT Reporting Station
Overcast Overcast  
Wind Chill: -5°   Ceiling: 2000
Heat Index: -2°   Visibility: 10mi
Dew Point: -5°   Wind: 5mph
Humidity: 80%   Direction: 310°NW
Pressure: 29.89"   Gusts: NA
Location:  43.5432°N, 72.8545°W
Report Text: KRUT 190315Z 31004KT 10SM OVC020 M02/M05 A2989 RMK AO1
Loading
Personal Weather Stations






























Interactive Weather Map New forecast layout! Learn more

10-Day Weather Forecast

Advertisements
Track Severe Weather on mobile